Time;durP1;ratioP1;P1;durP2;ratioP2;P2;SDS_P1;SDS_P2;PMS_P1;PMS_P2;Temp;Humidity;BMP_temperature;BMP_pressure;BME280_temperature;BME280_humidity;BME280_pressure;Samples;Min_cycle;Max_cycle;Signal;HPM_P1;HPM_P2
2023/03/06 07:35:04;;;;;;;4.73;4.43;;;4.70;99.90;6.40;100394.00;;;;6393046;22;20275;-75
2023/03/06 07:37:32;;;;;;;5.73;5.13;;;4.90;99.90;6.50;100408.00;;;;6284843;22;1372119;-75
2023/03/06 07:40:03;;;;;;;3.57;3.03;;;4.80;99.90;7.00;100367.00;;;;6313066;22;20203;-74
2023/03/06 07:42:33;;;;;;;10.07;7.23;;;4.90;99.90;6.10;100347.00;;;;6338993;22;20557;-74
2023/03/06 07:45:07;;;;;;;4.77;3.27;;;4.70;99.90;5.80;100399.00;;;;6339020;22;20149;-74
2023/03/06 07:47:33;;;;;;;16.13;8.40;;;4.60;99.90;6.10;100392.00;;;;6338718;22;20221;-74
2023/03/06 07:50:05;;;;;;;3.70;3.50;;;4.50;99.90;6.30;100397.00;;;;6312918;22;20152;-74
2023/03/06 07:52:35;;;;;;;1.87;1.77;;;4.70;99.90;6.00;100383.00;;;;6338177;22;20175;-74
2023/03/06 07:55:24;;;;;;;1.50;0.57;;;4.60;99.90;5.60;100383.00;;;;6338780;22;20514;-74
2023/03/06 07:57:52;;;;;;;3.33;3.13;;;4.60;99.90;6.30;100394.00;;;;6337805;22;20225;-74
2023/03/06 08:00:22;;;;;;;8.60;6.87;;;4.80;99.90;6.60;100340.00;;;;6338698;22;20471;-74
2023/03/06 08:02:48;;;;;;;9.47;5.43;;;4.90;99.90;6.50;100403.00;;;;6340086;22;20163;-74
2023/03/06 08:05:15;;;;;;;2.13;2.03;;;5.00;99.90;6.00;100397.00;;;;6338612;22;20150;-74
2023/03/06 08:07:44;;;;;;;6.00;5.27;;;4.80;99.90;5.70;100390.00;;;;6338047;22;20577;-74
2023/03/06 08:10:17;;;;;;;14.50;10.30;;;4.60;99.90;6.50;100399.00;;;;6340188;22;20168;-75
2023/03/06 08:12:55;;;;;;;3.23;2.30;;;4.90;99.90;6.80;100395.00;;;;6338590;22;20255;-74
2023/03/06 08:15:24;;;;;;;4.37;3.53;;;4.90;99.90;6.20;100403.00;;;;6312685;22;20184;-74
2023/03/06 08:17:53;;;;;;;6.23;3.63;;;5.10;99.90;5.50;100383.00;;;;6338580;22;20161;-74
2023/03/06 08:20:21;;;;;;;11.23;7.70;;;4.80;99.90;6.20;100383.00;;;;6338720;22;20227;-74
2023/03/06 08:22:50;;;;;;;4.90;3.90;;;4.90;99.90;6.10;100386.00;;;;6338307;22;20148;-74
2023/03/06 08:25:24;;;;;;;2.27;2.17;;;4.80;99.90;6.20;100387.00;;;;6339854;22;20140;-74
2023/03/06 08:27:52;;;;;;;9.70;6.77;;;5.00;99.90;5.90;100385.00;;;;6338496;22;20165;-74
2023/03/06 08:30:27;;;;;;;11.77;7.93;;;4.90;99.90;7.00;100396.00;;;;6312552;22;20184;-74
2023/03/06 08:32:52;;;;;;;2.70;2.27;;;5.10;99.90;6.90;100410.00;;;;6338077;22;20184;-74
2023/03/06 08:35:19;;;;;;;7.20;4.60;;;5.30;99.90;6.20;100349.00;;;;6339702;22;20516;-74
2023/03/06 08:37:47;;;;;;;0.70;0.70;;;5.20;99.90;7.10;100394.00;;;;6311878;22;20171;-74
2023/03/06 08:40:31;;;;;;;1.30;1.20;;;5.20;99.90;6.40;100379.00;;;;6338498;22;20150;-74
2023/03/06 08:42:57;;;;;;;3.83;1.57;;;5.20;99.90;6.40;100389.00;;;;6339623;22;20153;-74
2023/03/06 08:45:23;;;;;;;12.50;7.60;;;5.10;99.90;6.80;100404.00;;;;6338329;22;20154;-74
2023/03/06 08:47:49;;;;;;;15.40;5.87;;;5.20;99.90;6.60;100412.00;;;;6337917;22;20641;-74
2023/03/06 08:50:34;;;;;;;4.30;3.40;;;5.40;99.90;7.50;100399.00;;;;6337732;22;20171;-74
2023/03/06 08:53:03;;;;;;;5.27;4.73;;;5.50;99.90;8.20;100412.00;;;;6338192;22;20253;-75
2023/03/06 08:55:29;;;;;;;5.30;4.63;;;5.90;99.90;8.50;100433.00;;;;6338507;22;20218;-74
2023/03/06 08:57:58;;;;;;;5.23;4.23;;;6.20;99.90;7.60;100433.00;;;;6338107;22;20176;-74
2023/03/06 09:00:27;;;;;;;1.17;1.07;;;6.00;99.90;7.40;100420.00;;;;6338207;22;20249;-74
2023/03/06 09:02:53;;;;;;;19.00;10.47;;;5.80;99.90;7.90;100424.00;;;;6339494;22;20159;-74
2023/03/06 09:05:19;;;;;;;3.13;2.93;;;5.90;99.90;7.10;100435.00;;;;6339178;22;20525;-74
2023/03/06 09:07:48;;;;;;;6.60;6.00;;;5.80;99.90;7.40;100436.00;;;;6338095;22;20142;-75
2023/03/06 09:10:40;;;;;;;9.70;5.80;;;5.80;99.90;7.60;100436.00;;;;6338414;22;20144;-75
2023/03/06 09:13:08;;;;;;;3.67;3.13;;;5.90;99.90;6.90;100424.00;;;;6338274;22;20177;-74
2023/03/06 09:15:38;;;;;;;0.67;0.43;;;5.80;99.90;7.50;100401.00;;;;6337542;22;20165;-75
2023/03/06 09:18:04;;;;;;;2.50;2.40;;;5.70;99.90;7.40;100414.00;;;;6338067;22;20144;-74
2023/03/06 09:21:00;;;;;;;9.40;6.63;;;5.80;99.90;7.20;100416.00;;;;6337994;22;20146;-75
2023/03/06 09:23:26;;;;;;;4.60;3.13;;;5.90;99.90;8.00;100415.00;;;;6322936;22;20206;-74
2023/03/06 09:26:00;;;;;;;4.57;3.67;;;6.10;99.90;7.70;100440.00;;;;6338178;22;20141;-75
2023/03/06 09:28:27;;;;;;;4.07;3.63;;;6.20;99.90;7.90;100447.00;;;;6311932;22;20491;-74
2023/03/06 09:30:53;;;;;;;7.50;4.97;;;6.30;99.90;7.50;100440.00;;;;6311959;22;20166;-74
2023/03/06 09:33:19;;;;;;;3.33;3.00;;;6.20;99.90;7.00;100441.00;;;;6337459;22;20187;-75
2023/03/06 09:35:54;;;;;;;8.50;7.53;;;6.00;99.90;7.40;100436.00;;;;6337281;22;20200;-75
2023/03/06 09:38:27;;;;;;;6.63;5.73;;;6.00;99.90;8.10;100445.00;;;;6311714;22;20543;-74
2023/03/06 09:41:07;;;;;;;7.00;5.47;;;6.30;99.90;7.90;100383.00;;;;6312086;22;20620;-75
2023/03/06 09:43:46;;;;;;;7.50;4.80;;;6.30;99.90;7.40;100411.00;;;;6311763;22;20150;-74
2023/03/06 09:46:21;;;;;;;8.73;7.70;;;6.20;99.90;7.20;100386.00;;;;6311920;22;20177;-74
2023/03/06 09:49:36;;;;;;;4.07;3.63;;;6.30;99.90;7.30;100435.00;;;;6339072;22;20143;-74
2023/03/06 09:52:58;;;;;;;5.47;4.70;;;6.20;99.90;7.40;100437.00;;;;6338789;22;20182;-74
2023/03/06 09:55:27;;;;;;;6.60;5.93;;;6.20;99.90;7.80;100377.00;;;;6253442;22;20583;-74
2023/03/06 09:58:14;;;;;;;6.87;6.27;;;6.40;99.90;8.40;100453.00;;;;6311853;22;20152;-74
2023/03/06 10:01:12;;;;;;;6.57;3.73;;;6.60;99.90;8.00;100459.00;;;;6311429;22;20571;-74
2023/03/06 10:03:55;;;;;;;9.47;5.83;;;6.70;99.90;8.90;100471.00;;;;6298328;22;20176;-74
2023/03/06 10:06:46;;;;;;;4.97;4.57;;;6.90;99.90;8.20;100463.00;;;;6285576;22;20167;-74
2023/03/06 10:09:26;;;;;;;5.87;5.37;;;6.90;99.90;8.70;100469.00;;;;6285857;22;20166;-74
2023/03/06 10:11:58;;;;;;;5.93;4.13;;;7.00;99.90;9.20;100476.00;;;;6311406;22;20465;-74
2023/03/06 10:14:56;;;;;;;2.47;1.90;;;7.30;99.90;8.10;100469.00;;;;6339162;22;20148;-74
2023/03/06 10:17:32;;;;;;;3.30;2.30;;;7.00;99.90;8.50;100462.00;;;;6306171;22;20236;-74
2023/03/06 10:19:58;;;;;;;5.73;5.17;;;7.00;99.90;8.50;100470.00;;;;6285596;22;20156;-74
2023/03/06 10:33:43;;;;;;;8.47;5.47;;;6.90;99.90;9.30;100452.00;;;;5070175;28;20962;-74
2023/03/06 10:36:16;;;;;;;5.23;4.47;;;7.30;99.90;9.00;100478.00;;;;5050684;28;20637;-75
2023/03/06 10:38:44;;;;;;;5.30;3.77;;;7.50;99.90;9.70;100454.00;;;;5049693;28;20523;-74
2023/03/06 10:41:10;;;;;;;1.97;1.50;;;7.70;99.90;8.80;100473.00;;;;5049293;28;20606;-74
2023/03/06 10:44:05;;;;;;;6.23;3.53;;;7.60;99.90;9.40;100475.00;;;;5050404;28;20211;-74
2023/03/06 10:46:45;;;;;;;2.57;2.37;;;7.90;99.90;11.00;100475.00;;;;5049620;28;20182;-72
2023/03/06 10:49:35;;;;;;;0.20;0.20;;;8.60;99.90;12.40;100479.00;;;;5045241;28;20680;-72
2023/03/06 10:52:13;;;;;;;0.10;0.10;;;9.50;99.90;13.50;100478.00;;;;5048902;28;20217;-73
2023/03/06 10:54:42;;;;;;;3.33;3.03;;;10.20;99.90;11.60;100478.00;;;;5049763;28;20261;-72
2023/03/06 10:57:30;;;;;;;11.57;5.07;;;10.20;99.90;9.90;100524.00;;;;5049065;28;20181;-72
2023/03/06 11:00:00;;;;;;;6.97;4.93;;;8.90;99.90;10.30;100503.00;;;;5080184;28;20180;-75
2023/03/06 11:02:32;;;;;;;0.23;0.23;;;8.50;99.90;11.60;100491.00;;;;5048473;28;20224;-72
2023/03/06 11:05:00;;;;;;;7.43;4.97;;;8.90;99.90;10.90;100507.00;;;;5049690;28;20188;-73
2023/03/06 11:07:30;;;;;;;4.40;3.97;;;8.80;99.90;10.70;100497.00;;;;5048719;28;20184;-72
2023/03/06 11:09:56;;;;;;;11.97;7.23;;;8.60;99.90;10.90;100510.00;;;;5065579;28;20199;-72
2023/03/06 11:12:33;;;;;;;6.27;3.80;;;8.80;99.90;10.60;100512.00;;;;5049646;28;20204;-74
2023/03/06 11:15:16;;;;;;;3.77;3.37;;;8.60;99.90;9.60;100513.00;;;;5049737;28;20191;-74
2023/03/06 11:18:07;;;;;;;2.70;2.60;;;8.10;99.90;10.90;100478.00;;;;5034687;28;20279;-72
2023/03/06 11:20:41;;;;;;;12.13;7.67;;;8.20;99.90;11.00;100488.00;;;;5046152;28;20654;-72
2023/03/06 11:23:34;;;;;;;11.93;7.10;;;8.80;99.90;10.20;100477.00;;;;5049516;28;20223;-72
2023/03/06 11:26:15;;;;;;;8.70;5.90;;;8.40;99.90;10.40;100479.00;;;;5046041;28;20551;-72
2023/03/06 11:29:29;;;;;;;6.17;4.83;;;8.60;99.90;10.70;100477.00;;;;5049657;28;20767;-72
2023/03/06 11:32:24;;;;;;;3.30;2.93;;;8.80;99.90;9.10;100476.00;;;;5035723;28;20234;-74
2023/03/06 11:35:11;;;;;;;7.23;6.00;;;8.00;99.90;9.40;100448.00;;;;5068759;28;20194;-74
2023/03/06 11:37:50;;;;;;;2.80;2.47;;;8.00;99.90;9.20;100396.00;;;;5073219;28;20180;-72
2023/03/06 11:40:31;;;;;;;5.93;4.20;;;8.10;99.90;9.20;100459.00;;;;5050923;28;20286;-74
2023/03/06 11:43:35;;;;;;;6.03;5.10;;;8.00;99.90;8.90;100444.00;;;;5072327;28;20196;-74
2023/03/06 11:46:16;;;;;;;5.17;4.77;;;7.70;99.90;9.60;100431.00;;;;5025598;28;20186;-74
2023/03/06 11:48:52;;;;;;;9.60;7.37;;;7.80;99.90;9.90;100439.00;;;;5034663;28;20192;-74
2023/03/06 11:51:25;;;;;;;5.17;4.07;;;8.20;99.90;9.60;100448.00;;;;5034268;28;20187;-74
2023/03/06 11:53:52;;;;;;;12.17;6.67;;;8.30;99.90;10.20;100430.00;;;;5034696;28;20188;-74
2023/03/06 11:56:35;;;;;;;2.10;1.90;;;8.30;99.90;9.30;100444.00;;;;5051002;28;20196;-74
2023/03/06 11:59:39;;;;;;;0.97;0.97;;;7.90;99.90;9.80;100422.00;;;;5031420;28;20188;-74
2023/03/06 12:02:33;;;;;;;3.83;3.00;;;7.90;99.90;9.90;100426.00;;;;5059343;28;20199;-74
2023/03/06 12:05:45;;;;;;;1.67;1.57;;;8.00;99.90;9.80;100427.00;;;;5034186;28;20560;-74
2023/03/06 12:08:46;;;;;;;6.37;4.60;;;8.20;99.90;10.20;100420.00;;;;5032838;28;20668;-74
2023/03/06 12:11:34;;;;;;;2.30;2.20;;;8.50;99.90;10.50;100425.00;;;;5013315;28;20641;-74
2023/03/06 12:15:07;;;;;;;9.20;4.00;;;8.40;99.90;10.60;100432.00;;;;5030975;28;20647;-74
2023/03/06 12:18:02;;;;;;;3.23;2.93;;;8.70;99.90;10.60;100439.00;;;;5033506;28;20648;-74
2023/03/06 12:21:06;;;;;;;7.27;5.33;;;8.60;99.90;9.60;100448.00;;;;5032433;28;20194;-74
2023/03/06 12:23:56;;;;;;;8.10;3.60;;;8.10;99.90;10.30;100383.00;;;;5029679;28;20188;-74
2023/03/06 12:27:19;;;;;;;8.27;5.00;;;8.30;99.90;10.10;100431.00;;;;5031013;28;20218;-74
2023/03/06 12:30:03;;;;;;;6.30;3.90;;;8.30;99.90;9.40;100443.00;;;;5014572;28;20666;-74
2023/03/06 12:33:07;;;;;;;3.77;3.07;;;8.10;99.90;9.60;100410.00;;;;5034839;28;20303;-74
2023/03/06 12:35:59;;;;;;;2.97;2.23;;;8.30;99.90;10.30;100423.00;;;;5067196;28;20283;-74
2023/03/06 12:39:03;;;;;;;0.97;0.97;;;8.30;99.90;11.50;100405.00;;;;5020961;28;20202;-74
2023/03/06 12:41:50;;;;;;;4.67;3.87;;;8.80;99.90;10.30;100435.00;;;;5027776;28;20201;-74
2023/03/06 12:44:56;;;;;;;4.03;2.37;;;8.60;99.90;10.00;100434.00;;;;5034750;28;20183;-74
2023/03/06 12:47:29;;;;;;;5.33;3.43;;;8.40;99.90;10.10;100422.00;;;;4999725;28;20197;-72
2023/03/06 12:50:18;;;;;;;3.33;3.03;;;8.70;99.90;10.40;100371.00;;;;5016923;28;20579;-74
2023/03/06 12:52:46;;;;;;;3.30;1.83;;;8.70;99.90;10.50;100424.00;;;;5033324;28;20352;-74
2023/03/06 12:55:55;;;;;;;1.97;1.77;;;8.70;99.90;11.90;100400.00;;;;5032507;28;20771;-72
2023/03/06 12:58:30;;;;;;;2.80;1.80;;;9.40;99.90;10.20;100427.00;;;;5017407;28;20204;-74
2023/03/06 13:01:19;;;;;;;3.50;2.90;;;9.00;99.90;11.00;100399.00;;;;5032947;28;20263;-74
2023/03/06 13:04:24;;;;;;;0.30;0.30;;;8.80;99.90;11.60;100392.00;;;;5021287;28;20194;-74
2023/03/06 13:07:01;;;;;;;2.00;1.90;;;9.20;99.90;10.30;100422.00;;;;5022451;28;20195;-74
2023/03/06 13:09:55;;;;;;;2.73;1.67;;;8.80;99.90;10.40;100381.00;;;;5032885;28;20192;-74
2023/03/06 13:12:39;;;;;;;9.97;6.63;;;8.70;99.90;11.30;100406.00;;;;5033250;28;20688;-72
2023/03/06 13:15:44;;;;;;;4.70;2.17;;;9.00;99.90;10.20;100423.00;;;;5066313;28;20190;-74
2023/03/06 13:18:22;;;;;;;10.27;6.33;;;8.70;99.90;9.70;100447.00;;;;5052085;28;20644;-74
2023/03/06 13:20:55;;;;;;;5.13;4.17;;;8.50;99.90;9.40;100368.00;;;;5064389;28;20191;-74
2023/03/06 13:23:34;;;;;;;4.00;3.30;;;8.10;99.90;9.90;100423.00;;;;5033105;28;20188;-74
2023/03/06 13:26:23;;;;;;;11.40;5.50;;;8.30;99.90;10.20;100426.00;;;;5033807;28;20180;-74
2023/03/06 13:28:56;;;;;;;3.07;1.53;;;8.20;99.90;10.70;100404.00;;;;5024196;28;20231;-74
2023/03/06 13:31:32;;;;;;;16.20;7.27;;;8.70;99.90;11.50;100319.00;;;;5049182;28;20202;-72
2023/03/06 13:34:30;;;;;;;10.87;6.27;;;9.00;99.90;9.60;100413.00;;;;5030619;28;20463;-74
2023/03/06 13:37:27;;;;;;;3.73;3.40;;;8.50;99.90;10.20;100402.00;;;;5030437;28;20283;-74
2023/03/06 13:40:10;;;;;;;3.60;3.40;;;8.40;99.90;10.50;100393.00;;;;5033555;28;20676;-74
2023/03/06 13:43:09;;;;;;;1.07;1.07;;;8.50;99.90;11.40;100351.00;;;;5065966;28;20245;-72
2023/03/06 13:45:42;;;;;;;1.63;1.53;;;9.10;99.90;12.00;100335.00;;;;5024182;28;20183;-72
2023/03/06 13:48:26;;;;;;;0.20;0.20;;;9.60;99.90;12.30;100331.00;;;;5016356;28;20190;-72
2023/03/06 13:50:54;;;;;;;4.03;3.67;;;9.50;99.90;10.40;100322.00;;;;5064032;28;20191;-74
2023/03/06 13:54:00;;;;;;;3.33;3.07;;;9.00;99.90;10.70;100351.00;;;;5032430;28;20329;-74
2023/03/06 13:56:58;;;;;;;1.57;1.23;;;8.80;99.90;10.80;100364.00;;;;5032191;28;20230;-74
2023/03/06 13:59:40;;;;;;;4.47;2.97;;;8.60;99.90;11.00;100341.00;;;;5028698;28;20198;-72
2023/03/06 14:02:12;;;;;;;4.40;3.40;;;9.00;99.90;10.20;100380.00;;;;5025527;28;20213;-74
2023/03/06 14:05:20;;;;;;;2.90;1.90;;;8.60;99.90;9.50;100335.00;;;;5029031;28;20242;-73
2023/03/06 14:08:34;;;;;;;6.80;4.80;;;8.20;99.90;10.10;100392.00;;;;5019875;28;20175;-74
2023/03/06 14:11:26;;;;;;;5.43;4.83;;;8.10;99.90;10.40;100374.00;;;;5020087;28;20266;-73
2023/03/06 14:14:00;;;;;;;9.27;5.70;;;8.30;99.90;9.60;100393.00;;;;5027807;28;20253;-74
2023/03/06 14:16:29;;;;;;;11.43;6.87;;;8.10;99.90;9.30;100382.00;;;;5020016;28;20586;-74
2023/03/06 14:18:56;;;;;;;1.83;1.60;;;8.00;99.90;9.90;100382.00;;;;5015298;28;20203;-73
2023/03/06 14:22:14;;;;;;;1.50;1.40;;;8.10;99.90;11.70;100332.00;;;;5032217;28;20192;-74
2023/03/06 14:24:56;;;;;;;1.17;0.40;;;8.60;99.90;11.20;100311.00;;;;5028204;28;20551;-74
2023/03/06 14:27:48;;;;;;;0.10;0.10;;;9.10;99.90;11.20;100281.00;;;;5015747;28;20184;-72
2023/03/06 14:30:19;;;;;;;0.10;0.10;;;9.20;99.90;10.70;100314.00;;;;5028528;28;20264;-74
2023/03/06 14:32:51;;;;;;;0.10;0.10;;;8.70;99.90;10.30;100345.00;;;;5018664;28;20266;-74
2023/03/06 14:35:28;;;;;;;0.20;0.20;;;8.40;99.90;12.00;100281.00;;;;5048235;28;20191;-72
2023/03/06 14:37:59;;;;;;;3.80;2.77;;;8.90;99.90;10.40;100303.00;;;;5046890;28;20536;-74
2023/03/06 14:40:35;;;;;;;0.67;0.67;;;8.80;99.90;11.80;100281.00;;;;5031752;28;20196;-72
2023/03/06 14:43:25;;;;;;;1.77;1.67;;;9.00;99.90;11.30;100288.00;;;;5025811;28;20189;-72
2023/03/06 14:46:01;;;;;;;6.53;5.13;;;9.40;99.90;10.20;100295.00;;;;5032481;28;20189;-74
2023/03/06 14:48:40;;;;;;;0.20;0.20;;;8.80;99.90;11.80;100259.00;;;;5031743;28;20195;-73
2023/03/06 14:51:21;;;;;;;2.67;1.13;;;8.90;99.90;10.90;100277.00;;;;5045538;28;20593;-74
2023/03/06 14:53:52;;;;;;;0.50;0.50;;;8.70;99.90;11.70;100253.00;;;;5024922;28;20185;-72
2023/03/06 14:56:27;;;;;;;8.77;7.87;;;9.00;99.90;11.70;100240.00;;;;5056562;28;20202;-72
2023/03/06 14:59:15;;;;;;;1.23;1.23;;;9.10;99.90;12.30;100230.00;;;;5031672;28;20520;-72
2023/03/06 15:01:51;;;;;;;4.77;2.43;;;9.40;99.90;10.00;100211.00;;;;5031475;28;20199;-74
2023/03/06 15:04:41;;;;;;;1.80;1.63;;;8.70;99.90;10.80;100249.00;;;;5031632;28;20246;-74
2023/03/06 15:07:15;;;;;;;4.30;1.80;;;8.50;99.90;10.80;100254.00;;;;5026672;28;20189;-73
2023/03/06 15:09:53;;;;;;;0.77;0.77;;;8.80;99.90;12.00;100221.00;;;;5023952;28;20215;-72
2023/03/06 15:12:20;;;;;;;0.43;0.43;;;9.00;99.90;11.90;100233.00;;;;5015154;28;20205;-72
2023/03/06 15:15:02;;;;;;;4.13;2.93;;;9.10;99.90;10.10;100258.00;;;;5032413;28;20187;-74
2023/03/06 15:17:40;;;;;;;1.20;1.07;;;8.60;99.90;11.10;100236.00;;;;5031490;28;20203;-74
2023/03/06 15:20:35;;;;;;;2.53;2.13;;;8.60;99.90;10.50;100191.00;;;;5036001;28;20284;-74
2023/03/06 15:23:34;;;;;;;0.87;0.87;;;8.70;99.90;10.70;100039.00;;;;5033955;28;20188;-74
2023/03/06 15:26:20;;;;;;;0.47;0.43;;;8.30;99.90;10.40;100251.00;;;;5036122;28;20202;-74
2023/03/06 15:29:00;;;;;;;1.63;1.53;;;8.20;99.90;9.80;100270.00;;;;5036551;28;20234;-74
2023/03/06 15:31:31;;;;;;;9.13;4.23;;;8.20;99.90;9.60;100269.00;;;;5027068;28;20568;-74
2023/03/06 15:34:09;;;;;;;1.47;1.30;;;8.00;99.90;10.00;100262.00;;;;5035766;28;20639;-74
2023/03/06 15:36:47;;;;;;;5.97;1.70;;;8.00;99.90;10.30;100274.00;;;;5034578;28;20187;-74
2023/03/06 15:39:47;;;;;;;0.40;0.40;;;8.10;99.90;11.80;100228.00;;;;5034747;28;20187;-74
2023/03/06 15:42:13;;;;;;;0.73;0.73;;;8.60;99.90;12.30;100214.00;;;;5030309;28;20181;-72
2023/03/06 15:44:39;;;;;;;0.40;0.40;;;9.10;99.90;11.00;100233.00;;;;5035768;28;20189;-72
2023/03/06 15:47:10;;;;;;;0.13;0.13;;;9.00;99.90;10.80;100198.00;;;;5017965;28;20239;-74
2023/03/06 15:49:38;;;;;;;3.63;2.53;;;8.60;99.90;10.10;100245.00;;;;5034668;28;20187;-74
2023/03/06 15:52:17;;;;;;;3.17;2.87;;;8.20;99.90;10.30;100249.00;;;;5034141;28;20231;-74
2023/03/06 15:54:43;;;;;;;4.23;1.83;;;8.20;99.90;10.50;100203.00;;;;5034579;28;20186;-74
2023/03/06 15:57:23;;;;;;;6.60;2.40;;;8.30;99.90;10.80;100239.00;;;;5035704;28;20177;-74
2023/03/06 15:59:50;;;;;;;2.83;2.63;;;8.40;99.90;9.80;100250.00;;;;5024888;28;20187;-74
2023/03/06 16:02:19;;;;;;;0.93;0.93;;;8.20;99.90;11.60;100142.00;;;;5034241;28;20699;-74
2023/03/06 16:04:49;;;;;;;1.03;1.03;;;8.50;99.90;11.00;100199.00;;;;5018081;28;20194;-74
2023/03/06 16:07:24;;;;;;;2.13;1.50;;;8.60;99.90;11.00;100213.00;;;;5033619;28;20326;-74
2023/03/06 16:09:52;;;;;;;3.10;2.20;;;8.60;99.90;10.00;100215.00;;;;5034676;28;20243;-74
2023/03/06 16:12:21;;;;;;;1.33;1.23;;;8.30;99.90;10.50;100217.00;;;;5033945;28;20225;-74
2023/03/06 16:14:50;;;;;;;0.10;0.10;;;8.20;99.90;10.40;100202.00;;;;5034231;28;20299;-74
2023/03/06 16:17:24;;;;;;;2.17;1.83;;;8.10;99.90;10.50;100217.00;;;;5029354;28;20195;-74
2023/03/06 16:20:14;;;;;;;1.23;0.83;;;8.20;99.90;10.60;100211.00;;;;5033634;28;20210;-73
2023/03/06 16:22:48;;;;;;;0.73;0.67;;;8.20;99.90;10.50;100207.00;;;;5033622;28;20250;-74
2023/03/06 16:25:22;;;;;;;1.17;1.07;;;8.20;99.90;11.20;100198.00;;;;5034142;28;20182;-74
2023/03/06 16:27:58;;;;;;;0.80;0.80;;;8.30;99.90;11.20;100181.00;;;;5017174;28;20363;-73
2023/03/06 16:30:30;;;;;;;0.53;0.53;;;8.50;99.90;10.80;100181.00;;;;5035015;28;20184;-73
2023/03/06 16:32:57;;;;;;;4.00;3.50;;;8.50;99.90;9.40;100219.00;;;;5033722;28;20233;-73
2023/03/06 16:35:37;;;;;;;4.10;1.67;;;8.00;99.90;10.80;100186.00;;;;5033456;28;20175;-73
2023/03/06 16:38:12;;;;;;;2.97;2.33;;;8.20;99.90;11.10;100174.00;;;;5033446;28;20194;-73
2023/03/06 16:40:40;;;;;;;1.70;1.57;;;8.40;99.90;11.00;100160.00;;;;5033571;28;20732;-73
2023/03/06 16:43:12;;;;;;;1.83;1.67;;;8.50;99.90;11.30;100171.00;;;;5018995;28;20184;-73
2023/03/06 16:45:47;;;;;;;0.40;0.40;;;8.40;99.90;11.80;100162.00;;;;5010637;28;20187;-73
2023/03/06 16:48:36;;;;;;;3.30;1.90;;;8.70;99.90;10.50;100196.00;;;;5033634;28;20187;-73
2023/03/06 16:51:09;;;;;;;2.97;2.60;;;8.50;99.90;10.10;100199.00;;;;5028000;28;20187;-73
2023/03/06 16:53:47;;;;;;;4.83;2.93;;;8.20;99.90;10.20;100215.00;;;;5037674;28;20208;-73
2023/03/06 16:56:35;;;;;;;4.27;2.93;;;8.20;99.90;10.10;100210.00;;;;5033624;28;20187;-73
2023/03/06 16:59:39;;;;;;;4.67;2.80;;;8.00;99.90;9.80;100227.00;;;;5033259;28;20205;-74
2023/03/06 17:02:51;;;;;;;3.83;2.30;;;7.70;99.90;9.50;100245.00;;;;5031182;28;20662;-73
2023/03/06 17:05:26;;;;;;;2.13;0.67;;;7.60;99.90;10.30;100231.00;;;;5020556;28;20190;-73
2023/03/06 17:08:02;;;;;;;1.33;1.23;;;7.70;99.90;11.10;100231.00;;;;5033136;28;20175;-73
2023/03/06 17:10:29;;;;;;;1.90;0.60;;;8.10;99.90;10.70;100234.00;;;;5031524;28;20270;-73
2023/03/06 17:13:06;;;;;;;3.93;1.80;;;8.10;99.90;9.90;100234.00;;;;5031225;28;20199;-73
2023/03/06 17:15:55;;;;;;;2.43;1.90;;;7.90;99.90;9.40;100247.00;;;;5033073;28;20636;-73
2023/03/06 17:18:26;;;;;;;0.33;0.33;;;7.70;99.90;9.90;100255.00;;;;5032935;28;20232;-73
2023/03/06 17:21:39;;;;;;;6.83;4.20;;;7.60;99.90;8.60;100220.00;;;;5017454;28;20194;-73
2023/03/06 17:24:05;;;;;;;4.80;4.37;;;7.30;99.90;9.70;100165.00;;;;5032486;28;20179;-73
2023/03/06 17:26:47;;;;;;;6.23;3.27;;;7.30;99.90;8.40;100160.00;;;;5032894;28;20266;-73
2023/03/06 17:29:39;;;;;;;8.23;4.93;;;7.20;99.90;8.90;100149.00;;;;5017370;28;20248;-73
2023/03/06 17:32:19;;;;;;;7.90;4.70;;;7.20;99.90;7.90;100084.00;;;;5010946;28;20312;-73
2023/03/06 17:34:53;;;;;;;3.57;3.23;;;6.90;99.90;7.70;100094.00;;;;5029788;28;20603;-73
2023/03/06 17:37:33;;;;;;;7.87;4.83;;;6.70;99.90;7.30;100045.00;;;;5025345;28;20200;-73
2023/03/06 17:40:26;;;;;;;0.40;0.40;;;6.60;99.90;8.50;100076.00;;;;5018684;28;20187;-73
2023/03/06 17:43:15;;;;;;;3.40;2.20;;;6.70;99.90;7.80;100088.00;;;;5053403;28;20199;-73
2023/03/06 17:46:07;;;;;;;3.30;3.00;;;6.70;99.90;7.20;100009.00;;;;5011416;28;20190;-73
2023/03/06 17:48:42;;;;;;;1.07;0.70;;;6.40;99.90;8.30;100022.00;;;;5010767;28;20200;-73
2023/03/06 17:51:31;;;;;;;0.97;0.97;;;6.50;99.90;8.60;100063.00;;;;5029170;28;20656;-73
2023/03/06 17:54:00;;;;;;;0.40;0.40;;;6.50;99.90;9.00;100073.00;;;;5024186;28;20210;-73
2023/03/06 17:56:44;;;;;;;0.63;0.63;;;6.80;99.90;9.00;100054.00;;;;5032378;28;20625;-73
2023/03/06 17:59:34;;;;;;;0.47;0.47;;;6.80;99.90;8.60;100069.00;;;;5032017;28;20181;-73
2023/03/06 18:02:12;;;;;;;1.80;1.70;;;6.90;99.90;8.80;100074.00;;;;5028078;28;20197;-72
2023/03/06 18:05:01;;;;;;;1.03;0.93;;;7.00;99.90;8.60;100063.00;;;;5028857;28;20190;-73
2023/03/06 18:07:45;;;;;;;1.13;0.67;;;6.80;99.90;7.70;100014.00;;;;5014332;28;20660;-73
2023/03/06 18:10:17;;;;;;;4.77;2.23;;;6.60;99.90;7.60;100017.00;;;;5016564;28;20185;-73
2023/03/06 18:12:45;;;;;;;2.70;2.50;;;6.50;99.90;7.50;100036.00;;;;5033045;28;20216;-72
2023/03/06 18:15:11;;;;;;;1.77;1.67;;;6.40;99.90;8.10;99963.00;;;;5032819;28;20197;-72
2023/03/06 18:18:00;;;;;;;0.30;0.30;;;6.40;99.90;9.00;100033.00;;;;5031805;28;20190;-72
2023/03/06 18:20:50;;;;;;;1.53;1.43;;;6.60;99.90;8.30;100029.00;;;;5031637;28;20185;-73
2023/03/06 18:23:25;;;;;;;0.30;0.30;;;6.70;99.90;8.60;100015.00;;;;5025999;28;20194;-73
2023/03/06 18:25:54;;;;;;;3.80;1.90;;;6.70;99.90;8.20;100011.00;;;;5031711;28;20663;-72
2023/03/06 18:28:20;;;;;;;1.83;1.37;;;6.60;99.90;8.60;100012.00;;;;5031780;28;20191;-73
2023/03/06 18:30:55;;;;;;;0.77;0.77;;;6.80;99.90;8.80;100009.00;;;;5031414;28;20278;-72
2023/03/06 18:33:23;;;;;;;0.50;0.50;;;6.80;99.90;8.50;99996.00;;;;5031699;28;20311;-73
2023/03/06 18:36:10;;;;;;;2.00;1.03;;;6.70;99.90;8.80;99985.00;;;;5031900;28;20229;-73
2023/03/06 18:38:40;;;;;;;1.67;1.30;;;6.70;99.90;8.70;99993.00;;;;5024756;28;20603;-73
2023/03/06 18:41:54;;;;;;;0.30;0.30;;;6.80;99.90;8.80;99986.00;;;;5060905;28;20197;-73
2023/03/06 18:44:24;;;;;;;0.63;0.63;;;6.80;99.90;8.10;99967.00;;;;5027774;28;20225;-73
2023/03/06 18:46:55;;;;;;;2.87;2.60;;;6.60;99.90;8.20;99963.00;;;;5031508;28;20283;-73
2023/03/06 18:49:30;;;;;;;0.60;0.60;;;6.60;99.90;8.00;99909.00;;;;5040075;28;20199;-72
2023/03/06 18:52:16;;;;;;;2.13;1.03;;;6.50;99.90;7.80;99887.00;;;;5031912;28;20203;-73
2023/03/06 18:54:49;;;;;;;0.40;0.40;;;6.50;99.90;8.10;99933.00;;;;5026140;28;20278;-72
2023/03/06 18:57:39;;;;;;;2.63;1.90;;;6.40;99.90;8.10;99922.00;;;;5021017;28;20194;-72
2023/03/06 19:00:50;;;;;;;1.10;1.03;;;6.50;99.90;7.70;99924.00;;;;5056314;28;20732;-72
2023/03/06 19:03:47;;;;;;;0.80;0.80;;;6.50;99.90;8.20;99896.00;;;;5029030;28;20726;-72
2023/03/06 19:06:38;;;;;;;0.60;0.60;;;6.50;99.90;7.70;99883.00;;;;5031512;28;20251;-72
2023/03/06 19:09:36;;;;;;;0.30;0.30;;;6.50;99.90;8.50;99917.00;;;;4978403;28;20202;-72
2023/03/06 19:12:34;;;;;;;1.63;1.57;;;6.50;99.90;8.30;99910.00;;;;5023199;28;20290;-72
2023/03/06 19:15:09;;;;;;;1.07;0.97;;;6.50;99.90;8.30;99908.00;;;;5033085;28;20190;-72
2023/03/06 19:17:57;;;;;;;1.00;1.00;;;6.60;99.90;7.50;99875.00;;;;5024738;28;20185;-72
2023/03/06 19:20:49;;;;;;;1.33;0.80;;;6.40;99.90;7.70;99847.00;;;;5060965;28;20217;-72
2023/03/06 19:23:34;;;;;;;2.67;1.97;;;6.40;99.90;7.80;99879.00;;;;5017905;28;20226;-73
2023/03/06 19:26:24;;;;;;;1.23;1.13;;;6.40;99.90;8.00;99882.00;;;;5065227;28;20213;-73
2023/03/06 19:29:15;;;;;;;0.60;0.60;;;6.50;99.90;9.10;99896.00;;;;5051626;28;20191;-73
2023/03/06 19:32:01;;;;;;;0.40;0.40;;;6.80;99.90;8.80;99879.00;;;;5034645;28;20218;-73
2023/03/06 19:35:09;;;;;;;1.10;1.07;;;6.90;99.90;9.50;99900.00;;;;5026936;28;20222;-73
2023/03/06 19:37:41;;;;;;;1.13;1.13;;;7.20;99.90;9.00;99901.00;;;;5009791;28;20250;-73
2023/03/06 19:40:38;;;;;;;0.87;0.87;;;7.20;99.90;8.70;99895.00;;;;5065154;28;20230;-73
2023/03/06 19:43:36;;;;;;;1.40;1.30;;;7.00;99.90;8.70;99876.00;;;;5034603;28;20181;-74
2023/03/06 19:46:30;;;;;;;0.80;0.80;;;6.90;99.90;8.40;99841.00;;;;5030519;28;20218;-74